createdAt,value
2018-09-27T00:00:32.612Z,99.90
2018-09-27T00:03:00.742Z,99.90
2018-09-27T00:05:28.928Z,99.90
2018-09-27T00:07:57.102Z,99.90
2018-09-27T00:10:25.275Z,99.90
2018-09-27T00:12:53.445Z,99.90
2018-09-27T00:15:21.602Z,99.90
2018-09-27T00:17:49.765Z,99.90
2018-09-27T00:20:17.953Z,99.90
2018-09-27T00:22:46.107Z,99.90
2018-09-27T00:25:14.242Z,99.90
2018-09-27T00:27:42.383Z,99.90
2018-09-27T00:30:10.523Z,99.90
2018-09-27T00:32:38.665Z,99.90
2018-09-27T00:35:06.899Z,99.90
2018-09-27T00:37:35.051Z,99.90
2018-09-27T00:40:03.214Z,99.90
2018-09-27T00:42:31.373Z,99.90
2018-09-27T00:44:59.548Z,99.90
2018-09-27T00:47:27.705Z,99.90
2018-09-27T00:49:55.846Z,99.90
2018-09-27T00:52:23.963Z,99.90
2018-09-27T00:54:52.135Z,99.90
2018-09-27T00:57:20.278Z,99.90
2018-09-27T00:59:48.437Z,99.90
2018-09-27T01:02:16.592Z,99.90
2018-09-27T01:04:44.731Z,99.90
2018-09-27T01:07:12.870Z,99.90
2018-09-27T01:09:41.012Z,99.90
2018-09-27T01:12:09.165Z,99.90
2018-09-27T01:14:37.322Z,99.90
2018-09-27T01:17:05.509Z,99.90
2018-09-27T01:19:33.684Z,99.90
2018-09-27T01:22:01.859Z,99.90
2018-09-27T01:24:29.966Z,99.90
2018-09-27T01:26:58.096Z,99.90
2018-09-27T01:29:26.245Z,99.90
2018-09-27T01:31:54.393Z,99.90
2018-09-27T01:34:22.517Z,99.90
2018-09-27T01:36:50.681Z,99.90
2018-09-27T01:39:18.807Z,99.90
2018-09-27T01:41:46.947Z,99.90
2018-09-27T01:44:15.082Z,99.90
2018-09-27T01:46:43.249Z,99.90
2018-09-27T01:49:11.414Z,99.90
2018-09-27T01:51:39.604Z,99.90
2018-09-27T01:54:07.771Z,99.90
2018-09-27T01:56:35.924Z,99.90
2018-09-27T01:59:04.157Z,99.90
2018-09-27T02:01:32.353Z,99.90
2018-09-27T02:04:00.569Z,99.90
2018-09-27T02:06:28.721Z,99.90
2018-09-27T02:08:56.853Z,99.90
2018-09-27T02:11:25.038Z,99.90
2018-09-27T02:13:53.169Z,99.90
2018-09-27T02:16:21.318Z,99.90
2018-09-27T02:18:49.470Z,99.90
2018-09-27T02:21:17.642Z,99.90
2018-09-27T02:23:45.802Z,99.90
2018-09-27T02:26:13.990Z,99.90
2018-09-27T02:28:42.144Z,99.90
2018-09-27T02:31:10.338Z,99.90
2018-09-27T02:33:38.513Z,99.90
2018-09-27T02:36:06.643Z,99.90
2018-09-27T02:38:34.800Z,99.90
2018-09-27T02:41:03.031Z,99.90
2018-09-27T02:43:31.141Z,99.90
2018-09-27T02:45:59.287Z,99.90
2018-09-27T02:48:27.466Z,99.90
2018-09-27T02:50:55.623Z,99.90
2018-09-27T02:53:23.778Z,99.90
2018-09-27T02:55:51.913Z,99.90
2018-09-27T02:58:20.062Z,99.90
2018-09-27T03:00:48.234Z,99.90
2018-09-27T03:03:16.452Z,99.90
2018-09-27T03:05:44.608Z,99.90
2018-09-27T03:08:12.794Z,99.90
2018-09-27T03:10:40.956Z,99.90
2018-09-27T03:13:09.128Z,99.90
2018-09-27T03:15:37.275Z,99.90
2018-09-27T03:18:05.435Z,99.90
2018-09-27T03:20:33.598Z,99.90
2018-09-27T03:23:01.773Z,99.90
2018-09-27T03:25:29.938Z,99.90
2018-09-27T03:27:58.098Z,99.90
2018-09-27T03:30:26.290Z,99.90
2018-09-27T03:32:57.373Z,99.90
2018-09-27T03:35:25.509Z,99.90
2018-09-27T03:37:53.853Z,99.90
2018-09-27T03:40:22.165Z,99.90
2018-09-27T03:42:50.317Z,99.90
2018-09-27T03:45:18.482Z,99.90
2018-09-27T03:47:46.659Z,99.90
2018-09-27T03:50:14.829Z,99.90
2018-09-27T03:52:42.993Z,99.90
2018-09-27T03:55:11.160Z,99.90
2018-09-27T03:57:39.288Z,99.90
2018-09-27T04:00:07.755Z,99.90
2018-09-27T04:02:35.905Z,99.90
2018-09-27T04:05:04.086Z,99.90
2018-09-27T04:07:32.226Z,99.90
2018-09-27T04:10:00.410Z,99.90
2018-09-27T04:12:28.573Z,99.90
2018-09-27T04:14:56.692Z,99.90
2018-09-27T04:17:24.827Z,99.90
2018-09-27T04:19:52.976Z,99.90
2018-09-27T04:22:21.129Z,99.90
2018-09-27T04:24:49.330Z,99.90
2018-09-27T04:27:17.458Z,99.90
2018-09-27T04:29:45.620Z,99.90
2018-09-27T04:32:13.742Z,99.90
2018-09-27T04:34:41.891Z,99.90
2018-09-27T04:37:10.013Z,99.90
2018-09-27T04:39:38.198Z,99.90
2018-09-27T04:42:06.306Z,99.90
2018-09-27T04:44:34.464Z,99.90
2018-09-27T04:47:02.627Z,99.90
2018-09-27T04:49:30.783Z,99.90
2018-09-27T04:51:58.953Z,99.90
2018-09-27T04:54:27.138Z,99.90
2018-09-27T04:56:55.326Z,99.90
2018-09-27T04:59:23.527Z,99.90
2018-09-27T05:01:51.710Z,99.90
2018-09-27T05:04:19.917Z,99.90
2018-09-27T05:06:48.161Z,99.90
2018-09-27T05:09:16.377Z,99.90
2018-09-27T05:11:44.590Z,99.90
2018-09-27T05:14:12.800Z,99.90
2018-09-27T05:16:40.998Z,99.90
2018-09-27T05:19:09.239Z,99.90
2018-09-27T05:21:37.456Z,99.90
2018-09-27T05:24:05.658Z,99.90
2018-09-27T05:26:33.862Z,99.90
2018-09-27T05:29:02.060Z,99.90
2018-09-27T05:31:30.282Z,99.90
2018-09-27T05:33:58.538Z,99.90
2018-09-27T05:36:26.737Z,99.90
2018-09-27T05:38:54.934Z,99.90
2018-09-27T05:41:23.132Z,99.90
2018-09-27T05:43:51.334Z,99.90
2018-09-27T05:46:19.509Z,99.90
2018-09-27T05:48:47.741Z,99.90
2018-09-27T05:51:15.934Z,99.90
2018-09-27T05:53:44.133Z,99.90
2018-09-27T05:56:12.321Z,99.90
2018-09-27T05:58:40.509Z,99.90
2018-09-27T06:01:08.745Z,99.90
2018-09-27T06:03:36.951Z,99.90
2018-09-27T06:06:05.171Z,99.90
2018-09-27T06:08:33.349Z,99.90
2018-09-27T06:11:01.951Z,99.90
2018-09-27T06:13:30.207Z,99.90
2018-09-27T06:15:58.412Z,99.90
2018-09-27T06:18:26.625Z,99.90
2018-09-27T06:20:54.812Z,99.90
2018-09-27T06:23:23.006Z,99.90
2018-09-27T06:25:51.240Z,99.20
2018-09-27T06:28:19.447Z,98.30
2018-09-27T06:30:47.658Z,98.10
2018-09-27T06:33:15.855Z,97.30
2018-09-27T06:35:44.042Z,97.00
2018-09-27T06:38:12.242Z,96.60
2018-09-27T06:40:40.447Z,96.60
2018-09-27T06:43:08.671Z,96.00
2018-09-27T06:45:36.962Z,96.30
2018-09-27T06:48:05.222Z,96.20
2018-09-27T06:50:33.449Z,95.40
2018-09-27T06:53:01.610Z,94.80
2018-09-27T06:55:30.097Z,94.50
2018-09-27T06:57:58.148Z,94.60
2018-09-27T07:00:26.405Z,94.00
2018-09-27T07:02:54.630Z,93.80
2018-09-27T07:05:22.831Z,93.70
2018-09-27T07:07:51.013Z,94.00
2018-09-27T07:10:19.218Z,94.10
2018-09-27T07:12:47.407Z,94.10
2018-09-27T07:15:15.593Z,94.10
2018-09-27T07:17:43.790Z,93.50
2018-09-27T07:20:12.232Z,93.60
2018-09-27T07:22:40.426Z,93.10
2018-09-27T07:25:08.653Z,93.10
2018-09-27T07:27:36.858Z,92.60
2018-09-27T07:30:05.049Z,92.80
2018-09-27T07:32:33.346Z,92.60
2018-09-27T07:35:01.550Z,93.20
2018-09-27T07:37:29.769Z,93.50
2018-09-27T07:39:57.974Z,93.60
2018-09-27T07:42:26.176Z,92.70
2018-09-27T07:44:54.389Z,92.50
2018-09-27T07:47:22.598Z,92.40
2018-09-27T07:49:50.791Z,92.30
2018-09-27T07:52:18.990Z,91.80
2018-09-27T07:54:47.177Z,91.70
2018-09-27T07:57:15.374Z,91.50
2018-09-27T07:59:43.577Z,92.40
2018-09-27T08:02:11.793Z,92.10
2018-09-27T08:04:40.018Z,92.40
2018-09-27T08:07:08.213Z,92.40
2018-09-27T08:09:36.390Z,92.60
2018-09-27T08:12:04.582Z,92.20
2018-09-27T08:14:32.795Z,92.20
2018-09-27T08:17:01.022Z,93.00
2018-09-27T08:19:29.181Z,92.80
2018-09-27T08:21:57.384Z,92.00
2018-09-27T08:24:25.614Z,91.30
2018-09-27T08:26:53.822Z,91.40
2018-09-27T08:29:22.001Z,91.50
2018-09-27T08:31:50.194Z,91.30
2018-09-27T08:34:18.414Z,91.40
2018-09-27T08:36:46.603Z,91.30
2018-09-27T08:39:14.801Z,90.90
2018-09-27T08:41:43.013Z,90.20
2018-09-27T08:44:11.883Z,88.30
2018-09-27T08:46:40.779Z,89.60
2018-09-27T08:49:09.080Z,87.90
2018-09-27T08:51:37.322Z,86.50
2018-09-27T08:54:05.498Z,86.00
2018-09-27T08:56:33.786Z,85.40
2018-09-27T08:59:01.906Z,84.80
2018-09-27T09:01:30.204Z,83.30
2018-09-27T09:03:58.432Z,81.60
2018-09-27T09:06:26.589Z,82.60
2018-09-27T09:08:54.801Z,83.10
2018-09-27T09:11:22.978Z,80.90
2018-09-27T09:13:51.188Z,81.00
2018-09-27T09:16:19.375Z,81.70
2018-09-27T09:18:47.550Z,81.60
2018-09-27T09:21:15.729Z,80.00
2018-09-27T09:23:43.895Z,80.60
2018-09-27T09:26:12.087Z,78.80
2018-09-27T09:28:40.373Z,78.80
2018-09-27T09:31:08.512Z,78.30
2018-09-27T09:33:36.767Z,78.00
2018-09-27T09:36:04.946Z,78.30
2018-09-27T09:38:33.217Z,74.70
2018-09-27T09:41:01.429Z,74.80
2018-09-27T09:43:29.597Z,73.70
2018-09-27T09:45:57.781Z,73.80
2018-09-27T09:48:25.980Z,71.20
2018-09-27T09:50:54.177Z,72.50
2018-09-27T09:53:22.362Z,72.90
2018-09-27T09:55:50.541Z,72.60
2018-09-27T09:58:18.712Z,68.20
2018-09-27T10:00:46.933Z,68.30
2018-09-27T10:03:15.111Z,69.00
2018-09-27T10:05:43.303Z,69.00
2018-09-27T10:08:11.470Z,69.70
2018-09-27T10:10:39.645Z,69.00
2018-09-27T10:13:07.830Z,68.50
2018-09-27T10:15:36.082Z,65.90
2018-09-27T10:18:04.320Z,65.10
2018-09-27T10:20:32.537Z,66.50
2018-09-27T10:23:00.729Z,66.50
2018-09-27T10:25:28.961Z,63.90
2018-09-27T10:27:57.140Z,61.90
2018-09-27T10:30:25.338Z,63.80
2018-09-27T10:32:53.541Z,63.40
2018-09-27T10:35:21.753Z,61.40
2018-09-27T10:37:49.963Z,60.80
2018-09-27T10:40:18.193Z,60.10
2018-09-27T10:42:46.350Z,60.50
2018-09-27T10:45:14.497Z,60.50
2018-09-27T10:47:42.635Z,60.20
2018-09-27T10:50:10.781Z,61.10
2018-09-27T10:52:38.930Z,58.60
2018-09-27T10:55:07.090Z,57.60
2018-09-27T10:57:35.235Z,57.10
2018-09-27T11:00:03.390Z,57.20
2018-09-27T11:02:31.545Z,58.50
2018-09-27T11:04:59.670Z,59.10
2018-09-27T11:07:27.814Z,59.20
2018-09-27T11:09:55.992Z,59.50
2018-09-27T11:12:24.136Z,57.50
2018-09-27T11:14:52.280Z,56.80
2018-09-27T11:17:20.431Z,55.50
2018-09-27T11:19:48.591Z,55.20
2018-09-27T11:22:16.833Z,54.90
2018-09-27T11:24:44.974Z,54.30
2018-09-27T11:27:13.133Z,55.10
2018-09-27T11:30:46.395Z,55.40
2018-09-27T11:33:14.543Z,54.90
2018-09-27T11:35:42.682Z,54.50
2018-09-27T11:38:10.823Z,54.80
2018-09-27T11:40:38.960Z,54.60
2018-09-27T11:43:07.131Z,53.00
2018-09-27T11:45:35.310Z,53.60
2018-09-27T11:48:03.462Z,55.40
2018-09-27T11:50:31.610Z,55.90
2018-09-27T11:52:59.780Z,55.20
2018-09-27T11:55:27.898Z,55.70
2018-09-27T11:57:56.026Z,53.60
2018-09-27T12:00:24.215Z,55.10
2018-09-27T12:02:52.340Z,53.30
2018-09-27T12:05:20.490Z,54.60
2018-09-27T12:07:48.645Z,55.20
2018-09-27T12:10:16.981Z,56.00
2018-09-27T12:12:45.113Z,53.00
2018-09-27T12:15:13.254Z,53.00
2018-09-27T12:17:41.461Z,52.70
2018-09-27T12:20:09.621Z,52.20
2018-09-27T12:22:37.701Z,51.50
2018-09-27T12:25:06.074Z,50.50
2018-09-27T12:27:34.205Z,49.90
2018-09-27T12:30:02.334Z,51.10
2018-09-27T12:32:30.483Z,52.40
2018-09-27T12:34:58.642Z,51.60
2018-09-27T12:37:26.770Z,48.90
2018-09-27T12:39:54.958Z,50.40
2018-09-27T12:42:23.120Z,51.80
2018-09-27T12:44:51.302Z,50.40
2018-09-27T12:47:19.424Z,52.70
2018-09-27T12:49:47.554Z,50.90
2018-09-27T12:52:16.082Z,51.20
2018-09-27T12:54:43.898Z,52.50
2018-09-27T12:57:12.068Z,49.70
2018-09-27T12:59:40.249Z,49.70
2018-09-27T13:02:08.492Z,51.00
2018-09-27T13:04:36.546Z,51.60
2018-09-27T13:07:04.784Z,48.60
2018-09-27T13:09:32.956Z,46.90
2018-09-27T13:12:01.156Z,45.80
2018-09-27T13:14:29.276Z,49.70
2018-09-27T13:16:57.510Z,47.30
2018-09-27T13:19:25.637Z,46.30
2018-09-27T13:21:53.836Z,46.50
2018-09-27T13:24:21.984Z,46.90
2018-09-27T13:26:50.125Z,44.80
2018-09-27T13:29:18.275Z,45.30
2018-09-27T13:31:46.397Z,45.50
2018-09-27T13:34:14.557Z,42.60
2018-09-27T13:36:42.672Z,43.60
2018-09-27T13:39:11.243Z,43.60
2018-09-27T13:41:39.950Z,44.10
2018-09-27T13:44:08.170Z,43.40
2018-09-27T13:46:37.034Z,39.30
2018-09-27T13:49:11.772Z,42.00
2018-09-27T13:51:39.773Z,40.10
2018-09-27T13:54:07.949Z,36.80
2018-09-27T13:56:36.093Z,38.90
2018-09-27T13:59:04.234Z,41.60
2018-09-27T14:01:32.386Z,41.80
2018-09-27T14:04:00.535Z,39.80
2018-09-27T14:06:28.675Z,39.30
2018-09-27T14:08:56.797Z,37.00
2018-09-27T14:11:24.925Z,32.40
2018-09-27T14:13:53.069Z,31.70
2018-09-27T14:16:21.231Z,32.70
2018-09-27T14:18:49.366Z,34.60
2018-09-27T14:21:17.528Z,33.70
2018-09-27T14:23:45.675Z,36.60
2018-09-27T14:26:13.814Z,37.10
2018-09-27T14:28:41.970Z,35.80
2018-09-27T14:31:10.115Z,36.10
2018-09-27T14:33:38.292Z,33.10
2018-09-27T14:36:06.534Z,33.50
2018-09-27T14:38:34.675Z,35.50
2018-09-27T14:41:02.825Z,37.50
2018-09-27T14:43:30.946Z,37.10
2018-09-27T14:45:59.095Z,35.50
2018-09-27T14:48:27.263Z,32.60
2018-09-27T14:50:55.448Z,32.30
2018-09-27T14:53:30.396Z,30.60
2018-09-27T14:55:58.624Z,30.40
2018-09-27T14:58:26.760Z,33.60
2018-09-27T15:00:54.921Z,34.10
2018-09-27T15:03:23.097Z,34.90
2018-09-27T15:05:51.269Z,35.10
2018-09-27T15:08:19.405Z,36.60
2018-09-27T15:10:47.620Z,36.90
2018-09-27T15:13:15.731Z,36.00
2018-09-27T15:15:43.897Z,36.10
2018-09-27T15:18:12.037Z,35.50
2018-09-27T15:20:40.191Z,37.50
2018-09-27T15:23:08.397Z,33.50
2018-09-27T15:25:36.562Z,36.80
2018-09-27T15:28:04.713Z,37.60
2018-09-27T15:30:32.899Z,41.60
2018-09-27T15:33:01.015Z,43.90
2018-09-27T15:35:29.187Z,44.60
2018-09-27T15:37:57.320Z,45.50
2018-09-27T15:40:25.470Z,46.70
2018-09-27T15:42:53.610Z,48.40
2018-09-27T15:45:21.785Z,49.10
2018-09-27T15:47:49.935Z,48.40
2018-09-27T15:50:18.296Z,50.20
2018-09-27T15:52:46.431Z,48.60
2018-09-27T15:55:14.574Z,49.40
2018-09-27T15:57:42.723Z,49.00
2018-09-27T16:00:10.898Z,49.90
2018-09-27T16:02:39.035Z,50.40
2018-09-27T16:05:07.221Z,51.70
2018-09-27T16:07:35.392Z,51.40
2018-09-27T16:10:03.538Z,52.00
2018-09-27T16:12:31.687Z,52.20
2018-09-27T16:14:59.848Z,53.50
2018-09-27T16:17:28.033Z,55.80
2018-09-27T16:19:56.186Z,55.10
2018-09-27T16:22:24.360Z,54.40
2018-09-27T16:24:52.509Z,54.90
2018-09-27T16:27:20.682Z,56.40
2018-09-27T16:29:48.839Z,55.80
2018-09-27T16:32:16.994Z,56.10
2018-09-27T16:34:45.159Z,56.40
2018-09-27T16:37:13.310Z,56.60
2018-09-27T16:39:41.482Z,56.30
2018-09-27T16:42:09.667Z,56.60
2018-09-27T16:44:37.816Z,56.60
2018-09-27T16:47:06.083Z,56.70
2018-09-27T16:49:34.243Z,57.90
2018-09-27T16:52:02.399Z,59.20
2018-09-27T16:54:30.545Z,59.20
2018-09-27T16:56:58.770Z,60.00
2018-09-27T16:59:26.936Z,61.30
2018-09-27T17:01:55.085Z,60.20
2018-09-27T17:04:23.267Z,60.60
2018-09-27T17:06:51.486Z,61.00
2018-09-27T17:09:20.474Z,61.70
2018-09-27T17:11:48.712Z,61.30
2018-09-27T17:14:16.850Z,61.60
2018-09-27T17:16:45.108Z,63.00
2018-09-27T17:19:13.220Z,63.20
2018-09-27T17:21:41.435Z,63.70
2018-09-27T17:24:09.620Z,63.90
2018-09-27T17:26:38.294Z,64.60
2018-09-27T17:29:06.434Z,65.60
2018-09-27T17:31:34.631Z,65.20
2018-09-27T17:34:02.738Z,65.80
2018-09-27T17:36:30.877Z,67.40
2018-09-27T17:38:59.030Z,70.70
2018-09-27T17:41:27.190Z,71.40
2018-09-27T17:43:55.538Z,72.70
2018-09-27T17:46:23.675Z,72.70
2018-09-27T17:48:51.817Z,72.90
2018-09-27T17:51:20.019Z,72.40
2018-09-27T17:53:48.163Z,72.50
2018-09-27T17:56:16.286Z,73.00
2018-09-27T17:58:44.436Z,74.00
2018-09-27T18:01:12.565Z,74.80
2018-09-27T18:03:40.703Z,74.60
2018-09-27T18:06:08.925Z,75.40
2018-09-27T18:08:37.070Z,75.10
2018-09-27T18:11:05.194Z,75.40
2018-09-27T18:13:33.398Z,75.30
2018-09-27T18:16:01.465Z,76.30
2018-09-27T18:18:29.593Z,77.20
2018-09-27T18:20:57.740Z,77.70
2018-09-27T18:23:32.712Z,78.50
2018-09-27T18:26:00.849Z,78.60
2018-09-27T18:28:29.074Z,79.60
2018-09-27T18:30:57.198Z,79.00
2018-09-27T18:33:25.374Z,80.40
2018-09-27T18:35:53.569Z,80.30
2018-09-27T18:38:21.718Z,81.40
2018-09-27T18:40:49.984Z,81.60
2018-09-27T18:43:18.213Z,81.20
2018-09-27T18:45:46.314Z,81.40
2018-09-27T18:48:14.499Z,81.50
2018-09-27T18:50:42.678Z,82.30
2018-09-27T18:53:10.818Z,82.80
2018-09-27T18:55:38.977Z,82.90
2018-09-27T18:58:07.138Z,83.20
2018-09-27T19:00:35.334Z,83.80
2018-09-27T19:03:03.486Z,84.70
2018-09-27T19:05:31.669Z,86.10
2018-09-27T19:07:59.823Z,86.20
2018-09-27T19:10:28.081Z,87.00
2018-09-27T19:12:56.226Z,85.90
2018-09-27T19:15:24.363Z,86.20
2018-09-27T19:17:52.523Z,86.90
2018-09-27T19:20:20.720Z,87.00
2018-09-27T19:22:48.928Z,86.80
2018-09-27T19:25:17.086Z,87.90
2018-09-27T19:27:45.320Z,87.70
2018-09-27T19:30:13.564Z,88.70
2018-09-27T19:32:41.737Z,88.80
2018-09-27T19:35:09.944Z,90.10
2018-09-27T19:37:38.094Z,89.60
2018-09-27T19:40:06.266Z,89.80
2018-09-27T19:42:34.396Z,90.10
2018-09-27T19:45:02.558Z,90.20
2018-09-27T19:47:30.689Z,90.60
2018-09-27T19:49:58.821Z,91.20
2018-09-27T19:52:26.938Z,91.70
2018-09-27T19:54:55.073Z,91.60
2018-09-27T19:57:23.233Z,91.50
2018-09-27T19:59:51.364Z,91.60
2018-09-27T20:02:19.598Z,91.50
2018-09-27T20:04:47.752Z,91.80
2018-09-27T20:07:15.913Z,91.90
2018-09-27T20:09:44.102Z,92.00
2018-09-27T20:12:12.297Z,92.30
2018-09-27T20:14:40.436Z,92.60
2018-09-27T20:17:08.587Z,93.10
2018-09-27T20:19:36.799Z,93.00
2018-09-27T20:22:05.004Z,93.30
2018-09-27T20:24:33.181Z,93.40
2018-09-27T20:27:01.305Z,93.80
2018-09-27T20:29:29.424Z,94.20
2018-09-27T20:31:57.549Z,94.10
2018-09-27T20:34:25.772Z,94.50
2018-09-27T20:36:53.861Z,94.70
2018-09-27T20:39:21.977Z,95.10
2018-09-27T20:41:50.133Z,95.30
2018-09-27T20:44:18.276Z,95.30
2018-09-27T20:46:46.428Z,95.50
2018-09-27T20:49:20.959Z,96.00
2018-09-27T20:51:49.124Z,96.50
2018-09-27T20:54:17.276Z,97.20
2018-09-27T20:56:45.489Z,97.60
2018-09-27T20:59:13.605Z,98.10
2018-09-27T21:01:41.798Z,98.80
2018-09-27T21:04:09.930Z,98.90
2018-09-27T21:06:38.747Z,99.20
2018-09-27T21:09:08.442Z,99.30
2018-09-27T21:11:36.597Z,99.40
2018-09-27T21:14:04.746Z,99.20
2018-09-27T21:16:32.939Z,99.00
2018-09-27T21:19:01.182Z,98.90
2018-09-27T21:21:29.363Z,99.10
2018-09-27T21:23:57.559Z,99.00
2018-09-27T21:26:25.803Z,99.20
2018-09-27T21:28:54.085Z,99.20
2018-09-27T21:31:22.288Z,98.80
2018-09-27T21:33:50.438Z,99.30
2018-09-27T21:36:18.648Z,99.10
2018-09-27T21:38:46.826Z,99.20
2018-09-27T21:41:14.970Z,99.30
2018-09-27T21:43:43.141Z,99.40
2018-09-27T21:46:11.270Z,99.30
2018-09-27T21:48:39.406Z,99.50
2018-09-27T21:51:07.562Z,99.30
2018-09-27T21:53:36.076Z,99.20
2018-09-27T21:56:04.198Z,99.30
2018-09-27T21:58:32.338Z,99.30
2018-09-27T22:01:00.475Z,99.70
2018-09-27T22:03:28.615Z,99.60
2018-09-27T22:05:56.746Z,99.90
2018-09-27T22:08:24.893Z,99.90
2018-09-27T22:10:53.037Z,99.90
2018-09-27T22:13:21.213Z,99.90
2018-09-27T22:15:49.511Z,99.90
2018-09-27T22:18:17.642Z,99.90
2018-09-27T22:20:45.825Z,99.90
2018-09-27T22:23:13.973Z,99.90
2018-09-27T22:25:42.128Z,99.90
2018-09-27T22:28:10.296Z,99.90
2018-09-27T22:30:38.550Z,99.90
2018-09-27T22:33:06.723Z,99.90
2018-09-27T22:35:34.878Z,99.90
2018-09-27T22:38:03.018Z,99.90
2018-09-27T22:40:31.154Z,99.90
2018-09-27T22:42:59.303Z,99.90
2018-09-27T22:45:27.492Z,99.90
2018-09-27T22:47:55.622Z,99.90
2018-09-27T22:50:23.750Z,99.90
2018-09-27T22:52:51.916Z,99.90
2018-09-27T22:55:20.054Z,99.90
2018-09-27T23:00:22.866Z,99.90
2018-09-27T23:02:51.243Z,99.90
2018-09-27T23:05:19.370Z,99.90
2018-09-27T23:07:47.554Z,99.90
2018-09-27T23:10:15.679Z,99.90
2018-09-27T23:12:43.818Z,99.90
2018-09-27T23:15:11.951Z,99.90
2018-09-27T23:17:40.102Z,99.90
2018-09-27T23:20:09.253Z,99.90
2018-09-27T23:22:37.387Z,99.90
2018-09-27T23:25:05.531Z,99.90
2018-09-27T23:27:33.717Z,99.90
2018-09-27T23:30:01.852Z,99.90
2018-09-27T23:32:29.986Z,99.90
2018-09-27T23:34:58.122Z,99.90
2018-09-27T23:37:26.262Z,99.90
2018-09-27T23:39:54.424Z,99.90
2018-09-27T23:42:22.684Z,99.90
2018-09-27T23:44:50.866Z,99.90
2018-09-27T23:47:18.996Z,99.90
2018-09-27T23:49:47.134Z,99.90
2018-09-27T23:52:15.284Z,99.90
2018-09-27T23:54:43.449Z,99.90
2018-09-27T23:57:11.569Z,99.90
2018-09-27T23:59:39.865Z,99.90
